sensor_id;sensor_type;location;lat;lon;timestamp;P1;durP1;ratioP1;P2;durP2;ratioP2
18973;SDS011;9621;48.690;9.466;2022-10-17T00:02:24;5.33;;;2.73;;
18973;SDS011;9621;48.690;9.466;2022-10-17T00:04:51;6.00;;;2.67;;
18973;SDS011;9621;48.690;9.466;2022-10-17T00:07:18;3.87;;;2.53;;
18973;SDS011;9621;48.690;9.466;2022-10-17T00:09:45;4.90;;;3.10;;
18973;SDS011;9621;48.690;9.466;2022-10-17T00:12:13;6.10;;;2.87;;
18973;SDS011;9621;48.690;9.466;2022-10-17T00:14:40;4.70;;;2.60;;
18973;SDS011;9621;48.690;9.466;2022-10-17T00:17:08;10.30;;;2.90;;
18973;SDS011;9621;48.690;9.466;2022-10-17T00:19:35;6.43;;;2.30;;
18973;SDS011;9621;48.690;9.466;2022-10-17T00:22:02;4.93;;;2.50;;
18973;SDS011;9621;48.690;9.466;2022-10-17T00:24:29;4.90;;;2.70;;
18973;SDS011;9621;48.690;9.466;2022-10-17T00:26:57;6.33;;;2.63;;
18973;SDS011;9621;48.690;9.466;2022-10-17T00:29:24;8.87;;;2.53;;
18973;SDS011;9621;48.690;9.466;2022-10-17T00:31:53;7.67;;;2.67;;
18973;SDS011;9621;48.690;9.466;2022-10-17T00:34:22;6.07;;;2.70;;
18973;SDS011;9621;48.690;9.466;2022-10-17T00:36:50;5.13;;;3.00;;
18973;SDS011;9621;48.690;9.466;2022-10-17T00:39:17;4.93;;;3.30;;
18973;SDS011;9621;48.690;9.466;2022-10-17T00:41:44;10.57;;;3.63;;
18973;SDS011;9621;48.690;9.466;2022-10-17T00:47:17;6.20;;;2.77;;
18973;SDS011;9621;48.690;9.466;2022-10-17T00:49:48;6.17;;;3.00;;
18973;SDS011;9621;48.690;9.466;2022-10-17T00:52:16;7.90;;;2.80;;
18973;SDS011;9621;48.690;9.466;2022-10-17T00:54:47;5.13;;;2.87;;
18973;SDS011;9621;48.690;9.466;2022-10-17T00:57:19;8.80;;;2.77;;
18973;SDS011;9621;48.690;9.466;2022-10-17T00:59:47;8.67;;;2.93;;
18973;SDS011;9621;48.690;9.466;2022-10-17T01:02:20;7.40;;;3.17;;
18973;SDS011;9621;48.690;9.466;2022-10-17T01:04:49;14.63;;;2.70;;
18973;SDS011;9621;48.690;9.466;2022-10-17T01:07:19;6.20;;;2.43;;
18973;SDS011;9621;48.690;9.466;2022-10-17T01:09:46;8.63;;;2.17;;
18973;SDS011;9621;48.690;9.466;2022-10-17T01:12:15;7.73;;;2.60;;
18973;SDS011;9621;48.690;9.466;2022-10-17T01:14:49;4.93;;;2.50;;
18973;SDS011;9621;48.690;9.466;2022-10-17T01:17:26;7.93;;;2.60;;
18973;SDS011;9621;48.690;9.466;2022-10-17T01:20:08;4.17;;;2.30;;
18973;SDS011;9621;48.690;9.466;2022-10-17T01:23:09;4.43;;;2.40;;
18973;SDS011;9621;48.690;9.466;2022-10-17T01:25:51;11.33;;;2.70;;
18973;SDS011;9621;48.690;9.466;2022-10-17T01:28:26;3.73;;;2.43;;
18973;SDS011;9621;48.690;9.466;2022-10-17T01:31:08;3.93;;;2.43;;
18973;SDS011;9621;48.690;9.466;2022-10-17T01:33:45;2.60;;;2.40;;
18973;SDS011;9621;48.690;9.466;2022-10-17T01:36:18;6.50;;;2.30;;
18973;SDS011;9621;48.690;9.466;2022-10-17T01:39:00;2.97;;;2.40;;
18973;SDS011;9621;48.690;9.466;2022-10-17T01:41:33;7.33;;;2.80;;
18973;SDS011;9621;48.690;9.466;2022-10-17T01:44:07;8.17;;;2.60;;
18973;SDS011;9621;48.690;9.466;2022-10-17T01:46:38;17.67;;;2.80;;
18973;SDS011;9621;48.690;9.466;2022-10-17T01:49:09;13.67;;;2.87;;
18973;SDS011;9621;48.690;9.466;2022-10-17T01:51:40;6.50;;;2.10;;
18973;SDS011;9621;48.690;9.466;2022-10-17T01:54:12;4.30;;;2.00;;
18973;SDS011;9621;48.690;9.466;2022-10-17T01:56:43;8.50;;;2.40;;
18973;SDS011;9621;48.690;9.466;2022-10-17T01:59:14;6.27;;;2.67;;
18973;SDS011;9621;48.690;9.466;2022-10-17T02:01:46;5.87;;;2.23;;
18973;SDS011;9621;48.690;9.466;2022-10-17T02:04:15;8.93;;;2.63;;
18973;SDS011;9621;48.690;9.466;2022-10-17T02:06:43;4.53;;;2.00;;
18973;SDS011;9621;48.690;9.466;2022-10-17T02:09:14;9.93;;;2.00;;
18973;SDS011;9621;48.690;9.466;2022-10-17T02:11:44;18.53;;;3.20;;
18973;SDS011;9621;48.690;9.466;2022-10-17T02:14:20;18.47;;;2.90;;
18973;SDS011;9621;48.690;9.466;2022-10-17T02:16:58;26.37;;;3.17;;
18973;SDS011;9621;48.690;9.466;2022-10-17T02:19:37;19.33;;;3.53;;
18973;SDS011;9621;48.690;9.466;2022-10-17T02:22:15;13.60;;;3.30;;
18973;SDS011;9621;48.690;9.466;2022-10-17T02:24:49;9.47;;;2.30;;
18973;SDS011;9621;48.690;9.466;2022-10-17T02:27:22;7.83;;;2.70;;
18973;SDS011;9621;48.690;9.466;2022-10-17T02:29:59;6.77;;;2.17;;
18973;SDS011;9621;48.690;9.466;2022-10-17T02:32:34;6.93;;;2.27;;
18973;SDS011;9621;48.690;9.466;2022-10-17T02:35:06;7.67;;;2.33;;
18973;SDS011;9621;48.690;9.466;2022-10-17T02:37:35;13.47;;;2.70;;
18973;SDS011;9621;48.690;9.466;2022-10-17T02:40:03;12.97;;;2.60;;
18973;SDS011;9621;48.690;9.466;2022-10-17T02:42:32;6.73;;;2.50;;
18973;SDS011;9621;48.690;9.466;2022-10-17T02:45:00;20.70;;;2.23;;
18973;SDS011;9621;48.690;9.466;2022-10-17T02:47:30;6.07;;;1.83;;
18973;SDS011;9621;48.690;9.466;2022-10-17T02:50:03;17.23;;;2.20;;
18973;SDS011;9621;48.690;9.466;2022-10-17T02:52:32;11.77;;;2.60;;
18973;SDS011;9621;48.690;9.466;2022-10-17T02:55:05;3.30;;;2.50;;
18973;SDS011;9621;48.690;9.466;2022-10-17T02:57:37;6.37;;;2.73;;
18973;SDS011;9621;48.690;9.466;2022-10-17T03:00:07;8.83;;;2.83;;
18973;SDS011;9621;48.690;9.466;2022-10-17T03:02:37;10.60;;;2.73;;
18973;SDS011;9621;48.690;9.466;2022-10-17T03:05:07;10.73;;;2.03;;
18973;SDS011;9621;48.690;9.466;2022-10-17T03:07:35;6.33;;;2.13;;
18973;SDS011;9621;48.690;9.466;2022-10-17T03:10:02;10.20;;;2.53;;
18973;SDS011;9621;48.690;9.466;2022-10-17T03:12:30;9.70;;;2.53;;
18973;SDS011;9621;48.690;9.466;2022-10-17T03:14:56;10.33;;;3.17;;
18973;SDS011;9621;48.690;9.466;2022-10-17T03:17:23;4.10;;;1.87;;
18973;SDS011;9621;48.690;9.466;2022-10-17T03:19:51;6.70;;;2.27;;
18973;SDS011;9621;48.690;9.466;2022-10-17T03:22:19;34.07;;;2.90;;
18973;SDS011;9621;48.690;9.466;2022-10-17T03:24:46;15.20;;;2.43;;
18973;SDS011;9621;48.690;9.466;2022-10-17T03:27:12;4.27;;;2.10;;
18973;SDS011;9621;48.690;9.466;2022-10-17T03:29:39;3.83;;;2.10;;
18973;SDS011;9621;48.690;9.466;2022-10-17T03:32:06;4.53;;;1.90;;
18973;SDS011;9621;48.690;9.466;2022-10-17T03:34:33;6.93;;;2.20;;
18973;SDS011;9621;48.690;9.466;2022-10-17T03:37:00;12.10;;;2.70;;
18973;SDS011;9621;48.690;9.466;2022-10-17T03:39:28;13.83;;;2.50;;
18973;SDS011;9621;48.690;9.466;2022-10-17T03:41:55;8.03;;;2.50;;
18973;SDS011;9621;48.690;9.466;2022-10-17T03:46:51;11.17;;;2.70;;
18973;SDS011;9621;48.690;9.466;2022-10-17T03:49:18;14.73;;;2.53;;
18973;SDS011;9621;48.690;9.466;2022-10-17T03:51:45;6.20;;;2.30;;
18973;SDS011;9621;48.690;9.466;2022-10-17T03:54:12;9.67;;;2.27;;
18973;SDS011;9621;48.690;9.466;2022-10-17T03:59:31;9.03;;;2.03;;
18973;SDS011;9621;48.690;9.466;2022-10-17T04:01:58;4.10;;;2.30;;
18973;SDS011;9621;48.690;9.466;2022-10-17T04:04:25;5.03;;;2.47;;
18973;SDS011;9621;48.690;9.466;2022-10-17T04:06:53;5.50;;;1.87;;
18973;SDS011;9621;48.690;9.466;2022-10-17T04:09:19;6.77;;;2.17;;
18973;SDS011;9621;48.690;9.466;2022-10-17T04:11:47;4.37;;;2.10;;
18973;SDS011;9621;48.690;9.466;2022-10-17T04:14:14;13.20;;;2.60;;
18973;SDS011;9621;48.690;9.466;2022-10-17T04:16:42;5.10;;;2.20;;
18973;SDS011;9621;48.690;9.466;2022-10-17T04:19:10;5.33;;;2.20;;
18973;SDS011;9621;48.690;9.466;2022-10-17T04:24:14;6.53;;;2.10;;
18973;SDS011;9621;48.690;9.466;2022-10-17T04:26:41;3.63;;;2.50;;
18973;SDS011;9621;48.690;9.466;2022-10-17T04:36:55;4.97;;;1.90;;
18973;SDS011;9621;48.690;9.466;2022-10-17T04:39:22;5.07;;;2.03;;
18973;SDS011;9621;48.690;9.466;2022-10-17T04:41:49;11.00;;;2.17;;
18973;SDS011;9621;48.690;9.466;2022-10-17T04:44:16;13.10;;;3.00;;
18973;SDS011;9621;48.690;9.466;2022-10-17T04:46:44;19.87;;;2.30;;
18973;SDS011;9621;48.690;9.466;2022-10-17T04:49:11;13.60;;;2.33;;
18973;SDS011;9621;48.690;9.466;2022-10-17T05:36:22;9.00;;;2.50;;
18973;SDS011;9621;48.690;9.466;2022-10-17T05:38:50;13.80;;;2.50;;
18973;SDS011;9621;48.690;9.466;2022-10-17T05:41:17;11.17;;;2.40;;
18973;SDS011;9621;48.690;9.466;2022-10-17T05:48:55;10.37;;;2.50;;
18973;SDS011;9621;48.690;9.466;2022-10-17T05:51:24;9.67;;;2.47;;
18973;SDS011;9621;48.690;9.466;2022-10-17T05:53:51;11.13;;;3.00;;
18973;SDS011;9621;48.690;9.466;2022-10-17T05:56:18;12.00;;;3.00;;
18973;SDS011;9621;48.690;9.466;2022-10-17T05:58:45;6.43;;;2.50;;
18973;SDS011;9621;48.690;9.466;2022-10-17T06:01:13;4.00;;;2.33;;
18973;SDS011;9621;48.690;9.466;2022-10-17T06:03:39;4.07;;;2.83;;
18973;SDS011;9621;48.690;9.466;2022-10-17T06:06:07;3.90;;;2.80;;
18973;SDS011;9621;48.690;9.466;2022-10-17T06:08:37;14.77;;;3.07;;
18973;SDS011;9621;48.690;9.466;2022-10-17T06:11:04;13.00;;;3.00;;
18973;SDS011;9621;48.690;9.466;2022-10-17T06:13:31;17.53;;;2.83;;
18973;SDS011;9621;48.690;9.466;2022-10-17T06:15:58;21.67;;;3.37;;
18973;SDS011;9621;48.690;9.466;2022-10-17T06:18:25;18.13;;;3.10;;
18973;SDS011;9621;48.690;9.466;2022-10-17T06:20:52;7.53;;;2.73;;
18973;SDS011;9621;48.690;9.466;2022-10-17T06:23:19;7.80;;;2.37;;
18973;SDS011;9621;48.690;9.466;2022-10-17T06:25:47;4.17;;;2.10;;
18973;SDS011;9621;48.690;9.466;2022-10-17T06:28:14;3.03;;;1.80;;
18973;SDS011;9621;48.690;9.466;2022-10-17T06:30:41;11.20;;;2.67;;
18973;SDS011;9621;48.690;9.466;2022-10-17T06:33:09;5.53;;;2.10;;
18973;SDS011;9621;48.690;9.466;2022-10-17T06:35:35;15.13;;;3.13;;
18973;SDS011;9621;48.690;9.466;2022-10-17T06:43:14;5.83;;;2.70;;
18973;SDS011;9621;48.690;9.466;2022-10-17T06:45:41;9.18;;;2.60;;
18973;SDS011;9621;48.690;9.466;2022-10-17T06:48:10;4.18;;;2.05;;
18973;SDS011;9621;48.690;9.466;2022-10-17T06:50:37;8.98;;;2.50;;
18973;SDS011;9621;48.690;9.466;2022-10-17T06:53:04;8.80;;;2.40;;
18973;SDS011;9621;48.690;9.466;2022-10-17T06:55:31;21.38;;;2.72;;
18973;SDS011;9621;48.690;9.466;2022-10-17T06:57:58;9.60;;;2.58;;
18973;SDS011;9621;48.690;9.466;2022-10-17T07:00:26;27.73;;;4.45;;
18973;SDS011;9621;48.690;9.466;2022-10-17T07:02:53;45.97;;;5.50;;
18973;SDS011;9621;48.690;9.466;2022-10-17T07:05:21;69.22;;;6.28;;
18973;SDS011;9621;48.690;9.466;2022-10-17T07:07:47;22.55;;;3.08;;
18973;SDS011;9621;48.690;9.466;2022-10-17T07:10:14;10.95;;;2.53;;
18973;SDS011;9621;48.690;9.466;2022-10-17T07:12:41;13.13;;;2.60;;
18973;SDS011;9621;48.690;9.466;2022-10-17T07:15:10;18.42;;;3.88;;
18973;SDS011;9621;48.690;9.466;2022-10-17T07:17:38;13.32;;;3.30;;
18973;SDS011;9621;48.690;9.466;2022-10-17T07:20:05;11.32;;;3.05;;
18973;SDS011;9621;48.690;9.466;2022-10-17T07:22:33;13.75;;;3.42;;
18973;SDS011;9621;48.690;9.466;2022-10-17T07:25:00;9.30;;;2.95;;
18973;SDS011;9621;48.690;9.466;2022-10-17T07:27:27;9.32;;;3.03;;
18973;SDS011;9621;48.690;9.466;2022-10-17T07:29:54;8.60;;;2.78;;
18973;SDS011;9621;48.690;9.466;2022-10-17T07:32:20;10.68;;;2.90;;
18973;SDS011;9621;48.690;9.466;2022-10-17T07:34:49;8.63;;;3.25;;
18973;SDS011;9621;48.690;9.466;2022-10-17T07:37:15;8.13;;;3.13;;
18973;SDS011;9621;48.690;9.466;2022-10-17T07:39:42;6.75;;;2.83;;
18973;SDS011;9621;48.690;9.466;2022-10-17T07:42:09;10.15;;;3.28;;
18973;SDS011;9621;48.690;9.466;2022-10-17T07:44:36;6.15;;;2.50;;
18973;SDS011;9621;48.690;9.466;2022-10-17T07:47:03;4.40;;;2.30;;
18973;SDS011;9621;48.690;9.466;2022-10-17T07:49:30;9.02;;;2.78;;
18973;SDS011;9621;48.690;9.466;2022-10-17T07:51:58;9.70;;;2.90;;
18973;SDS011;9621;48.690;9.466;2022-10-17T07:54:25;10.32;;;2.45;;
18973;SDS011;9621;48.690;9.466;2022-10-17T07:56:52;5.30;;;2.58;;
18973;SDS011;9621;48.690;9.466;2022-10-17T07:59:19;6.65;;;2.00;;
18973;SDS011;9621;48.690;9.466;2022-10-17T08:01:46;6.13;;;2.65;;
18973;SDS011;9621;48.690;9.466;2022-10-17T08:04:13;5.03;;;2.60;;
18973;SDS011;9621;48.690;9.466;2022-10-17T08:06:41;6.40;;;2.38;;
18973;SDS011;9621;48.690;9.466;2022-10-17T08:09:09;4.75;;;2.20;;
18973;SDS011;9621;48.690;9.466;2022-10-17T08:11:36;3.25;;;1.90;;
18973;SDS011;9621;48.690;9.466;2022-10-17T08:14:03;6.85;;;2.20;;
18973;SDS011;9621;48.690;9.466;2022-10-17T08:16:30;6.82;;;2.50;;
18973;SDS011;9621;48.690;9.466;2022-10-17T08:18:57;7.25;;;2.72;;
18973;SDS011;9621;48.690;9.466;2022-10-17T08:21:23;6.18;;;2.60;;
18973;SDS011;9621;48.690;9.466;2022-10-17T08:23:50;7.55;;;2.92;;
18973;SDS011;9621;48.690;9.466;2022-10-17T08:26:18;13.80;;;3.42;;
18973;SDS011;9621;48.690;9.466;2022-10-17T08:28:45;7.72;;;2.35;;
18973;SDS011;9621;48.690;9.466;2022-10-17T08:31:13;9.77;;;2.83;;
18973;SDS011;9621;48.690;9.466;2022-10-17T08:33:42;11.38;;;3.20;;
18973;SDS011;9621;48.690;9.466;2022-10-17T08:36:09;6.43;;;3.17;;
18973;SDS011;9621;48.690;9.466;2022-10-17T08:38:38;11.68;;;3.03;;
18973;SDS011;9621;48.690;9.466;2022-10-17T08:41:11;10.38;;;3.78;;
18973;SDS011;9621;48.690;9.466;2022-10-17T08:43:53;6.93;;;2.65;;
18973;SDS011;9621;48.690;9.466;2022-10-17T08:46:29;4.85;;;2.53;;
18973;SDS011;9621;48.690;9.466;2022-10-17T08:48:58;7.28;;;2.97;;
18973;SDS011;9621;48.690;9.466;2022-10-17T08:51:28;6.07;;;3.08;;
18973;SDS011;9621;48.690;9.466;2022-10-17T08:54:00;3.90;;;3.00;;
18973;SDS011;9621;48.690;9.466;2022-10-17T08:56:32;5.53;;;2.88;;
18973;SDS011;9621;48.690;9.466;2022-10-17T08:59:05;4.25;;;2.65;;
18973;SDS011;9621;48.690;9.466;2022-10-17T09:01:38;3.90;;;2.33;;
18973;SDS011;9621;48.690;9.466;2022-10-17T09:07:04;6.00;;;2.50;;
18973;SDS011;9621;48.690;9.466;2022-10-17T09:09:38;3.65;;;2.63;;
18973;SDS011;9621;48.690;9.466;2022-10-17T09:12:14;8.52;;;2.50;;
18973;SDS011;9621;48.690;9.466;2022-10-17T09:14:53;6.43;;;2.45;;
18973;SDS011;9621;48.690;9.466;2022-10-17T09:17:35;3.45;;;2.40;;
18973;SDS011;9621;48.690;9.466;2022-10-17T09:20:10;4.93;;;2.40;;
18973;SDS011;9621;48.690;9.466;2022-10-17T09:22:43;4.28;;;2.50;;
18973;SDS011;9621;48.690;9.466;2022-10-17T09:25:14;7.22;;;2.00;;
18973;SDS011;9621;48.690;9.466;2022-10-17T09:27:45;4.90;;;2.13;;
18973;SDS011;9621;48.690;9.466;2022-10-17T09:30:33;4.90;;;2.15;;
18973;SDS011;9621;48.690;9.466;2022-10-17T09:33:08;6.15;;;2.30;;
18973;SDS011;9621;48.690;9.466;2022-10-17T09:35:37;3.78;;;1.92;;
18973;SDS011;9621;48.690;9.466;2022-10-17T09:38:06;2.50;;;1.67;;
18973;SDS011;9621;48.690;9.466;2022-10-17T09:40:37;3.35;;;1.80;;
18973;SDS011;9621;48.690;9.466;2022-10-17T09:43:05;3.28;;;1.90;;
18973;SDS011;9621;48.690;9.466;2022-10-17T09:45:36;6.15;;;1.60;;
18973;SDS011;9621;48.690;9.466;2022-10-17T09:48:10;2.60;;;1.60;;
18973;SDS011;9621;48.690;9.466;2022-10-17T09:50:44;3.88;;;1.90;;
18973;SDS011;9621;48.690;9.466;2022-10-17T09:53:12;4.60;;;1.63;;
18973;SDS011;9621;48.690;9.466;2022-10-17T09:55:44;4.22;;;1.80;;
18973;SDS011;9621;48.690;9.466;2022-10-17T09:58:12;3.83;;;1.50;;
18973;SDS011;9621;48.690;9.466;2022-10-17T10:00:41;5.97;;;1.50;;
18973;SDS011;9621;48.690;9.466;2022-10-17T10:03:13;2.58;;;1.30;;
18973;SDS011;9621;48.690;9.466;2022-10-17T10:05:42;2.30;;;1.70;;
18973;SDS011;9621;48.690;9.466;2022-10-17T10:08:26;1.98;;;1.65;;
18973;SDS011;9621;48.690;9.466;2022-10-17T10:10:58;4.70;;;1.77;;
18973;SDS011;9621;48.690;9.466;2022-10-17T10:13:28;3.60;;;1.88;;
18973;SDS011;9621;48.690;9.466;2022-10-17T10:18:41;5.25;;;1.52;;
18973;SDS011;9621;48.690;9.466;2022-10-17T10:21:10;2.70;;;1.50;;
18973;SDS011;9621;48.690;9.466;2022-10-17T10:23:38;7.00;;;1.73;;
18973;SDS011;9621;48.690;9.466;2022-10-17T10:26:20;2.00;;;1.80;;
18973;SDS011;9621;48.690;9.466;2022-10-17T10:28:52;4.75;;;1.92;;
18973;SDS011;9621;48.690;9.466;2022-10-17T10:31:27;3.00;;;1.73;;
18973;SDS011;9621;48.690;9.466;2022-10-17T10:33:58;3.63;;;1.75;;
18973;SDS011;9621;48.690;9.466;2022-10-17T10:36:43;3.28;;;1.80;;
18973;SDS011;9621;48.690;9.466;2022-10-17T10:42:06;3.63;;;1.88;;
18973;SDS011;9621;48.690;9.466;2022-10-17T10:44:42;3.88;;;1.55;;
18973;SDS011;9621;48.690;9.466;2022-10-17T10:47:21;5.45;;;2.05;;
18973;SDS011;9621;48.690;9.466;2022-10-17T10:49:51;7.03;;;1.60;;
18973;SDS011;9621;48.690;9.466;2022-10-17T10:52:36;6.75;;;1.65;;
18973;SDS011;9621;48.690;9.466;2022-10-17T10:55:15;2.75;;;1.42;;
18973;SDS011;9621;48.690;9.466;2022-10-17T10:57:48;3.63;;;1.63;;
18973;SDS011;9621;48.690;9.466;2022-10-17T11:00:20;2.83;;;1.60;;
18973;SDS011;9621;48.690;9.466;2022-10-17T11:02:53;7.40;;;1.48;;
18973;SDS011;9621;48.690;9.466;2022-10-17T11:05:29;2.30;;;1.42;;
18973;SDS011;9621;48.690;9.466;2022-10-17T11:08:04;7.00;;;2.25;;
18973;SDS011;9621;48.690;9.466;2022-10-17T11:10:38;4.85;;;1.58;;
18973;SDS011;9621;48.690;9.466;2022-10-17T11:13:10;4.57;;;1.50;;
18973;SDS011;9621;48.690;9.466;2022-10-17T11:15:43;6.07;;;1.55;;
18973;SDS011;9621;48.690;9.466;2022-10-17T11:18:20;4.95;;;1.60;;
18973;SDS011;9621;48.690;9.466;2022-10-17T11:20:52;2.78;;;1.55;;
18973;SDS011;9621;48.690;9.466;2022-10-17T11:23:24;4.20;;;1.50;;
18973;SDS011;9621;48.690;9.466;2022-10-17T11:25:57;3.22;;;1.60;;
18973;SDS011;9621;48.690;9.466;2022-10-17T11:28:27;4.18;;;1.65;;
18973;SDS011;9621;48.690;9.466;2022-10-17T11:30:56;3.60;;;1.67;;
18973;SDS011;9621;48.690;9.466;2022-10-17T11:33:28;3.28;;;1.42;;
18973;SDS011;9621;48.690;9.466;2022-10-17T11:36:03;3.42;;;1.45;;
18973;SDS011;9621;48.690;9.466;2022-10-17T11:38:35;2.65;;;1.52;;
18973;SDS011;9621;48.690;9.466;2022-10-17T11:41:08;3.88;;;1.48;;
18973;SDS011;9621;48.690;9.466;2022-10-17T11:43:39;4.05;;;1.48;;
18973;SDS011;9621;48.690;9.466;2022-10-17T11:46:13;5.88;;;1.50;;
18973;SDS011;9621;48.690;9.466;2022-10-17T11:48:47;5.63;;;1.65;;
18973;SDS011;9621;48.690;9.466;2022-10-17T11:51:26;3.50;;;1.40;;
18973;SDS011;9621;48.690;9.466;2022-10-17T11:53:56;2.67;;;1.42;;
18973;SDS011;9621;48.690;9.466;2022-10-17T11:56:32;4.15;;;1.83;;
18973;SDS011;9621;48.690;9.466;2022-10-17T11:59:13;5.95;;;2.00;;
18973;SDS011;9621;48.690;9.466;2022-10-17T12:02:11;4.05;;;1.70;;
18973;SDS011;9621;48.690;9.466;2022-10-17T12:04:47;1.95;;;1.48;;
18973;SDS011;9621;48.690;9.466;2022-10-17T12:07:26;3.00;;;1.40;;
18973;SDS011;9621;48.690;9.466;2022-10-17T12:10:04;4.35;;;1.40;;
18973;SDS011;9621;48.690;9.466;2022-10-17T12:12:42;7.13;;;1.52;;
18973;SDS011;9621;48.690;9.466;2022-10-17T12:17:55;3.17;;;1.58;;
18973;SDS011;9621;48.690;9.466;2022-10-17T12:20:28;5.25;;;1.55;;
18973;SDS011;9621;48.690;9.466;2022-10-17T12:23:01;4.38;;;1.80;;
18973;SDS011;9621;48.690;9.466;2022-10-17T12:25:47;7.03;;;1.40;;
18973;SDS011;9621;48.690;9.466;2022-10-17T12:28:18;2.67;;;1.25;;
18973;SDS011;9621;48.690;9.466;2022-10-17T12:31:02;4.78;;;1.52;;
18973;SDS011;9621;48.690;9.466;2022-10-17T12:33:32;3.05;;;1.70;;
18973;SDS011;9621;48.690;9.466;2022-10-17T12:48:10;2.03;;;1.48;;
18973;SDS011;9621;48.690;9.466;2022-10-17T12:53:28;4.65;;;1.50;;
18973;SDS011;9621;48.690;9.466;2022-10-17T12:56:05;3.33;;;1.50;;
18973;SDS011;9621;48.690;9.466;2022-10-17T12:58:33;4.00;;;1.75;;
18973;SDS011;9621;48.690;9.466;2022-10-17T13:01:01;3.47;;;1.63;;
18973;SDS011;9621;48.690;9.466;2022-10-17T13:03:30;2.28;;;1.20;;
18973;SDS011;9621;48.690;9.466;2022-10-17T13:06:01;4.80;;;1.30;;
18973;SDS011;9621;48.690;9.466;2022-10-17T13:08:31;1.73;;;1.30;;
18973;SDS011;9621;48.690;9.466;2022-10-17T13:11:00;2.83;;;1.50;;
18973;SDS011;9621;48.690;9.466;2022-10-17T13:13:34;2.00;;;1.40;;
18973;SDS011;9621;48.690;9.466;2022-10-17T13:16:04;2.03;;;1.10;;
18973;SDS011;9621;48.690;9.466;2022-10-17T13:18:31;2.40;;;1.40;;
18973;SDS011;9621;48.690;9.466;2022-10-17T13:21:00;6.03;;;1.20;;
18973;SDS011;9621;48.690;9.466;2022-10-17T13:23:29;4.05;;;1.33;;
18973;SDS011;9621;48.690;9.466;2022-10-17T13:26:01;2.50;;;1.10;;
18973;SDS011;9621;48.690;9.466;2022-10-17T13:28:38;5.78;;;1.25;;
18973;SDS011;9621;48.690;9.466;2022-10-17T13:31:04;2.40;;;1.42;;
18973;SDS011;9621;48.690;9.466;2022-10-17T13:33:36;3.70;;;1.40;;
18973;SDS011;9621;48.690;9.466;2022-10-17T13:36:05;1.88;;;1.15;;
18973;SDS011;9621;48.690;9.466;2022-10-17T13:38:38;3.15;;;1.38;;
18973;SDS011;9621;48.690;9.466;2022-10-17T13:41:08;7.90;;;1.48;;
18973;SDS011;9621;48.690;9.466;2022-10-17T13:43:39;1.95;;;1.27;;
18973;SDS011;9621;48.690;9.466;2022-10-17T13:46:06;3.03;;;1.33;;
18973;SDS011;9621;48.690;9.466;2022-10-17T13:48:41;2.05;;;1.60;;
18973;SDS011;9621;48.690;9.466;2022-10-17T13:51:09;4.10;;;1.42;;
18973;SDS011;9621;48.690;9.466;2022-10-17T13:53:38;7.75;;;1.88;;
18973;SDS011;9621;48.690;9.466;2022-10-17T13:56:16;4.90;;;1.70;;
18973;SDS011;9621;48.690;9.466;2022-10-17T13:58:46;2.85;;;1.17;;
18973;SDS011;9621;48.690;9.466;2022-10-17T14:01:14;5.25;;;1.40;;
18973;SDS011;9621;48.690;9.466;2022-10-17T14:03:41;3.08;;;1.35;;
18973;SDS011;9621;48.690;9.466;2022-10-17T14:06:13;3.17;;;1.33;;
18973;SDS011;9621;48.690;9.466;2022-10-17T14:08:46;2.97;;;1.10;;
18973;SDS011;9621;48.690;9.466;2022-10-17T14:11:24;5.68;;;1.38;;
18973;SDS011;9621;48.690;9.466;2022-10-17T14:13:55;3.65;;;1.42;;
18973;SDS011;9621;48.690;9.466;2022-10-17T14:16:23;4.03;;;1.30;;
18973;SDS011;9621;48.690;9.466;2022-10-17T14:18:51;8.02;;;1.40;;
18973;SDS011;9621;48.690;9.466;2022-10-17T14:21:20;6.97;;;2.90;;
18973;SDS011;9621;48.690;9.466;2022-10-17T14:23:48;6.80;;;2.28;;
18973;SDS011;9621;48.690;9.466;2022-10-17T14:26:17;4.80;;;1.77;;
18973;SDS011;9621;48.690;9.466;2022-10-17T14:28:46;2.92;;;1.40;;
18973;SDS011;9621;48.690;9.466;2022-10-17T14:31:20;3.55;;;1.50;;
18973;SDS011;9621;48.690;9.466;2022-10-17T14:33:54;5.43;;;1.40;;
18973;SDS011;9621;48.690;9.466;2022-10-17T14:36:29;5.25;;;1.13;;
18973;SDS011;9621;48.690;9.466;2022-10-17T14:39:02;6.68;;;1.70;;
18973;SDS011;9621;48.690;9.466;2022-10-17T14:41:31;2.35;;;1.42;;
18973;SDS011;9621;48.690;9.466;2022-10-17T14:44:00;2.70;;;1.80;;
18973;SDS011;9621;48.690;9.466;2022-10-17T14:46:32;5.00;;;1.90;;
18973;SDS011;9621;48.690;9.466;2022-10-17T14:49:03;6.40;;;1.55;;
18973;SDS011;9621;48.690;9.466;2022-10-17T14:51:31;6.20;;;1.90;;
18973;SDS011;9621;48.690;9.466;2022-10-17T14:54:00;4.07;;;1.90;;
18973;SDS011;9621;48.690;9.466;2022-10-17T14:56:33;6.38;;;1.65;;
18973;SDS011;9621;48.690;9.466;2022-10-17T14:59:02;3.45;;;1.90;;
18973;SDS011;9621;48.690;9.466;2022-10-17T15:01:32;4.90;;;1.92;;
18973;SDS011;9621;48.690;9.466;2022-10-17T15:03:59;7.35;;;1.80;;
18973;SDS011;9621;48.690;9.466;2022-10-17T15:06:28;4.70;;;1.83;;
18973;SDS011;9621;48.690;9.466;2022-10-17T15:08:55;3.65;;;1.67;;
18973;SDS011;9621;48.690;9.466;2022-10-17T15:11:23;3.53;;;1.98;;
18973;SDS011;9621;48.690;9.466;2022-10-17T15:13:50;6.00;;;2.03;;
18973;SDS011;9621;48.690;9.466;2022-10-17T15:16:17;4.78;;;1.85;;
18973;SDS011;9621;48.690;9.466;2022-10-17T15:18:47;2.63;;;1.95;;
18973;SDS011;9621;48.690;9.466;2022-10-17T15:21:18;6.00;;;2.38;;
18973;SDS011;9621;48.690;9.466;2022-10-17T15:23:46;5.32;;;1.88;;
18973;SDS011;9621;48.690;9.466;2022-10-17T15:26:14;3.75;;;1.90;;
18973;SDS011;9621;48.690;9.466;2022-10-17T15:28:43;4.55;;;2.10;;
18973;SDS011;9621;48.690;9.466;2022-10-17T15:31:11;7.68;;;2.10;;
18973;SDS011;9621;48.690;9.466;2022-10-17T15:33:40;10.68;;;2.42;;
18973;SDS011;9621;48.690;9.466;2022-10-17T15:36:22;8.15;;;1.90;;
18973;SDS011;9621;48.690;9.466;2022-10-17T15:38:51;11.45;;;2.45;;
18973;SDS011;9621;48.690;9.466;2022-10-17T15:41:19;3.92;;;2.03;;
18973;SDS011;9621;48.690;9.466;2022-10-17T15:43:46;4.38;;;2.33;;
18973;SDS011;9621;48.690;9.466;2022-10-17T15:46:16;5.28;;;2.03;;
18973;SDS011;9621;48.690;9.466;2022-10-17T15:48:45;3.85;;;1.85;;
18973;SDS011;9621;48.690;9.466;2022-10-17T15:51:12;5.22;;;1.70;;
18973;SDS011;9621;48.690;9.466;2022-10-17T15:53:41;12.05;;;2.22;;
18973;SDS011;9621;48.690;9.466;2022-10-17T15:56:13;5.25;;;2.20;;
18973;SDS011;9621;48.690;9.466;2022-10-17T15:58:44;9.15;;;2.13;;
18973;SDS011;9621;48.690;9.466;2022-10-17T16:01:15;10.48;;;2.55;;
18973;SDS011;9621;48.690;9.466;2022-10-17T16:03:46;10.93;;;2.17;;
18973;SDS011;9621;48.690;9.466;2022-10-17T16:06:14;6.70;;;2.50;;
18973;SDS011;9621;48.690;9.466;2022-10-17T16:08:43;5.97;;;2.78;;
18973;SDS011;9621;48.690;9.466;2022-10-17T16:11:13;6.28;;;2.50;;
18973;SDS011;9621;48.690;9.466;2022-10-17T16:13:45;8.50;;;2.88;;
18973;SDS011;9621;48.690;9.466;2022-10-17T16:16:16;6.38;;;2.45;;
18973;SDS011;9621;48.690;9.466;2022-10-17T16:18:44;6.22;;;2.60;;
18973;SDS011;9621;48.690;9.466;2022-10-17T16:21:12;4.30;;;2.40;;
18973;SDS011;9621;48.690;9.466;2022-10-17T16:23:40;6.72;;;2.38;;
18973;SDS011;9621;48.690;9.466;2022-10-17T16:26:09;3.70;;;2.42;;
18973;SDS011;9621;48.690;9.466;2022-10-17T16:28:38;6.15;;;2.47;;
18973;SDS011;9621;48.690;9.466;2022-10-17T16:31:09;11.95;;;2.88;;
18973;SDS011;9621;48.690;9.466;2022-10-17T16:33:45;12.32;;;2.60;;
18973;SDS011;9621;48.690;9.466;2022-10-17T16:36:14;8.32;;;2.40;;
18973;SDS011;9621;48.690;9.466;2022-10-17T16:38:46;13.40;;;2.22;;
18973;SDS011;9621;48.690;9.466;2022-10-17T16:41:20;4.40;;;2.33;;
18973;SDS011;9621;48.690;9.466;2022-10-17T16:43:49;8.15;;;2.47;;
18973;SDS011;9621;48.690;9.466;2022-10-17T16:46:17;11.82;;;2.50;;
18973;SDS011;9621;48.690;9.466;2022-10-17T16:48:45;6.35;;;2.50;;
18973;SDS011;9621;48.690;9.466;2022-10-17T16:51:12;7.97;;;2.30;;
18973;SDS011;9621;48.690;9.466;2022-10-17T16:53:42;12.68;;;3.10;;
18973;SDS011;9621;48.690;9.466;2022-10-17T16:56:09;8.50;;;2.83;;
18973;SDS011;9621;48.690;9.466;2022-10-17T16:58:38;7.75;;;2.50;;